Eastpoint, FL

11:41 PM EST on December 22, 2014 (GMT -0500)
Apalachicola Municipal | Change Station
CLOSE
Current Station
Airport
Location: Apalachicola,
Elevation: 20 ft
Nearby Weather Stations

Elev 20 ft 29.73 °N, 85.03 °W | Updated 48 minutes ago

Mostly Cloudy
Mostly Cloudy
69 °F
Feels Like 69 °F
N
8
Wind Variable Wind from SSW

Today
High -- | Low -- °F
--% Chance of Precip.
Yesterday
High -- | Low -- °F
Precip. -- in
7:31 AM 5:45 PM
New Moon, 2% visible
Pressure 29.86 in
Visibility 7.0 miles
Clouds Scattered Clouds 10000 ft
Dew Point 65 °F
Humidity 87%
Rainfall 0.04 in
Snow Depth Not available.
UV 0 out of 12
Pollen .50 out of 12
Air Quality Not available.
Flu Activity Not available.
METAR KAAF 230353Z AUTO 20007KT 7SM SCT100 21/18 A2986 RMK AO2 SLP111 T02060183 TSNO

More Conditions Fewer Conditions

Pressure 29.86 in
Visibility 7.0 miles
Clouds Scattered Clouds 10000 ft
Dew Point 65 °F
Humidity 87%
Rainfall 0.04 in
Snow Depth Not available.
UV 0 out of 12
Pollen .50 out of 12
Air Quality Not available.
Flu Activity Not available.
METAR KAAF 230353Z AUTO 20007KT 7SM SCT100 21/18 A2986 RMK AO2 SLP111 T02060183 TSNO

More Conditions Fewer Conditions

10-Day Weather Forecast

Almanac

Astronomy

Dec. 22, 2014 Rise Set
Actual Time
Civil Twilight
Nautical Twilight
Astronomical Twilight
Moon
Length of Visible Light
Length of Day
Tomorrow will be .
, % of the Moon is Illuminated

Today's Extremes

State Highs State Lows

Community

WunderPhotos

Upload Photos

1,779,778 photos uploaded!

WunderBlogs® & News

Nearby

Air Quality

  Air Quality AQ Index Pollutant
Not available.

Snow Depth

Station Depth Elevation

Earthquake Activity

City Distance Mag. Time & Date
Minimum magnitude displayed is 2.5.

Coastal Water Temperatures

Place Temperature

Nearby Weather Stations